createdAt,value
2018-11-06T00:02:19.319Z,8.80
2018-11-06T00:04:52.967Z,8.80
2018-11-06T00:07:20.911Z,8.80
2018-11-06T00:09:48.875Z,8.80
2018-11-06T00:12:16.874Z,8.80
2018-11-06T00:14:44.919Z,8.80
2018-11-06T00:17:13.155Z,8.90
2018-11-06T00:19:41.147Z,8.80
2018-11-06T00:22:09.180Z,8.90
2018-11-06T00:24:37.201Z,8.80
2018-11-06T00:27:05.479Z,8.80
2018-11-06T00:29:33.599Z,8.80
2018-11-06T00:32:01.738Z,8.80
2018-11-06T00:34:29.904Z,8.80
2018-11-06T00:36:57.889Z,8.80
2018-11-06T00:39:26.138Z,8.80
2018-11-06T00:41:54.218Z,8.80
2018-11-06T00:44:22.253Z,8.90
2018-11-06T00:46:50.362Z,8.90
2018-11-06T00:49:18.516Z,8.90
2018-11-06T00:51:46.589Z,8.90
2018-11-06T00:54:14.711Z,8.80
2018-11-06T00:56:43.020Z,8.90
2018-11-06T00:59:11.130Z,8.80
2018-11-06T01:01:39.143Z,8.90
2018-11-06T01:04:08.491Z,8.90
2018-11-06T01:06:36.725Z,8.90
2018-11-06T01:09:06.420Z,8.80
2018-11-06T01:11:34.556Z,8.80
2018-11-06T01:14:02.797Z,8.80
2018-11-06T01:16:30.938Z,8.80
2018-11-06T01:18:58.950Z,8.80
2018-11-06T01:21:27.133Z,8.90
2018-11-06T01:23:55.174Z,8.90
2018-11-06T01:26:23.210Z,8.90
2018-11-06T01:28:51.272Z,8.90
2018-11-06T01:31:19.310Z,8.90
2018-11-06T01:33:47.424Z,8.90
2018-11-06T01:36:15.632Z,8.90
2018-11-06T01:38:43.675Z,8.90
2018-11-06T01:41:11.711Z,8.90
2018-11-06T01:43:39.799Z,8.80
2018-11-06T01:46:07.958Z,8.90
2018-11-06T01:48:36.052Z,8.80
2018-11-06T01:51:04.366Z,8.80
2018-11-06T01:53:32.499Z,8.80
2018-11-06T01:56:00.735Z,8.80
2018-11-06T01:58:28.850Z,8.80
2018-11-06T02:00:57.049Z,8.80
2018-11-06T02:03:26.097Z,8.90
2018-11-06T02:05:54.424Z,9.00
2018-11-06T02:08:23.463Z,8.90
2018-11-06T02:10:51.491Z,8.90
2018-11-06T02:13:19.658Z,8.90
2018-11-06T02:15:47.669Z,8.90
2018-11-06T02:18:15.703Z,8.90
2018-11-06T02:20:43.757Z,9.00
2018-11-06T02:23:11.843Z,9.00
2018-11-06T02:25:39.995Z,9.00
2018-11-06T02:28:08.012Z,9.00
2018-11-06T02:30:36.007Z,9.00
2018-11-06T02:33:04.597Z,9.00
2018-11-06T02:35:32.780Z,8.90
2018-11-06T02:38:00.866Z,8.90
2018-11-06T02:40:29.200Z,8.90
2018-11-06T02:42:57.429Z,8.90
2018-11-06T02:45:25.558Z,8.90
2018-11-06T02:47:53.945Z,8.90
2018-11-06T02:50:22.019Z,8.90
2018-11-06T02:52:50.083Z,8.80
2018-11-06T02:55:18.062Z,8.90
2018-11-06T02:57:46.196Z,8.90
2018-11-06T03:00:15.673Z,8.90
2018-11-06T03:02:44.587Z,8.90
2018-11-06T03:05:12.666Z,8.80
2018-11-06T03:07:41.318Z,8.90
2018-11-06T03:10:10.714Z,8.80
2018-11-06T03:12:39.730Z,8.80
2018-11-06T03:15:08.544Z,8.80
2018-11-06T03:17:36.877Z,8.80
2018-11-06T03:20:05.081Z,8.90
2018-11-06T03:22:34.217Z,8.90
2018-11-06T03:25:02.392Z,8.90
2018-11-06T03:27:30.646Z,8.90
2018-11-06T03:29:58.812Z,8.80
2018-11-06T03:32:27.067Z,8.90
2018-11-06T03:34:55.220Z,8.90
2018-11-06T03:37:23.301Z,8.90
2018-11-06T03:39:51.327Z,8.90
2018-11-06T03:42:19.427Z,8.90
2018-11-06T03:44:47.536Z,8.90
2018-11-06T03:47:15.790Z,8.90
2018-11-06T03:49:43.739Z,8.80
2018-11-06T03:52:11.867Z,8.80
2018-11-06T03:54:39.933Z,8.80
2018-11-06T03:57:08.225Z,8.90
2018-11-06T03:59:36.274Z,8.80
2018-11-06T04:02:04.719Z,8.80
2018-11-06T04:04:32.838Z,8.90
2018-11-06T04:07:00.946Z,8.80
2018-11-06T04:09:29.135Z,8.80
2018-11-06T04:11:57.323Z,8.90
2018-11-06T04:14:25.623Z,8.90
2018-11-06T04:16:53.840Z,8.90
2018-11-06T04:19:21.962Z,8.90
2018-11-06T04:21:50.205Z,8.90
2018-11-06T04:24:18.932Z,8.90
2018-11-06T04:26:47.159Z,8.90
2018-11-06T04:29:15.214Z,9.00
2018-11-06T04:31:43.267Z,9.00
2018-11-06T04:34:11.365Z,8.90
2018-11-06T04:36:39.540Z,8.90
2018-11-06T04:39:09.701Z,8.90
2018-11-06T04:41:37.846Z,8.90
2018-11-06T04:44:06.392Z,8.90
2018-11-06T04:46:34.453Z,8.80
2018-11-06T04:49:02.498Z,8.90
2018-11-06T04:51:30.567Z,8.80
2018-11-06T04:54:01.338Z,8.80
2018-11-06T04:56:30.047Z,8.90
2018-11-06T04:58:58.226Z,8.90
2018-11-06T05:01:26.630Z,8.90
2018-11-06T05:03:54.787Z,8.90
2018-11-06T05:06:22.911Z,8.90
2018-11-06T05:08:50.938Z,9.00
2018-11-06T05:11:19.051Z,8.90
2018-11-06T05:13:47.123Z,8.90
2018-11-06T05:16:15.355Z,9.00
2018-11-06T05:18:43.830Z,9.00
2018-11-06T05:21:11.969Z,8.90
2018-11-06T05:23:40.210Z,8.90
2018-11-06T05:26:08.290Z,8.90
2018-11-06T05:28:36.364Z,8.90
2018-11-06T05:31:04.756Z,8.90
2018-11-06T05:33:32.813Z,8.90
2018-11-06T05:36:00.912Z,9.00
2018-11-06T05:38:29.274Z,9.00
2018-11-06T05:41:03.677Z,9.00
2018-11-06T05:43:32.063Z,9.00
2018-11-06T05:46:00.397Z,9.00
2018-11-06T05:48:29.268Z,9.00
2018-11-06T05:50:57.334Z,9.00
2018-11-06T05:53:25.390Z,9.00
2018-11-06T05:55:53.595Z,9.10
2018-11-06T05:58:21.854Z,9.00
2018-11-06T06:00:50.499Z,9.00
2018-11-06T06:03:18.519Z,9.00
2018-11-06T06:05:46.588Z,9.10
2018-11-06T06:08:14.825Z,9.10
2018-11-06T06:10:42.997Z,9.10
2018-11-06T06:13:11.141Z,9.10
2018-11-06T06:15:39.600Z,9.10
2018-11-06T06:18:08.525Z,9.10
2018-11-06T06:20:36.943Z,9.10
2018-11-06T06:23:05.954Z,9.10
2018-11-06T06:25:34.443Z,9.10
2018-11-06T06:28:02.612Z,9.20
2018-11-06T06:30:30.778Z,9.20
2018-11-06T06:32:58.936Z,9.10
2018-11-06T06:35:27.188Z,9.20
2018-11-06T06:37:55.300Z,9.20
2018-11-06T06:40:25.238Z,9.30
2018-11-06T06:42:53.392Z,9.20
2018-11-06T06:45:21.933Z,9.20
2018-11-06T06:47:49.965Z,9.30
2018-11-06T06:50:19.079Z,9.30
2018-11-06T06:52:47.512Z,9.30
2018-11-06T06:55:16.389Z,9.30
2018-11-06T06:57:46.136Z,9.30
2018-11-06T07:00:20.023Z,9.30
2018-11-06T07:02:50.357Z,9.30
2018-11-06T07:05:21.600Z,9.30
2018-11-06T07:07:50.037Z,9.40
2018-11-06T07:10:19.783Z,9.40
2018-11-06T07:12:50.738Z,9.40
2018-11-06T07:15:20.151Z,9.40
2018-11-06T07:17:49.460Z,9.40
2018-11-06T07:20:21.160Z,9.50
2018-11-06T07:22:49.488Z,9.50
2018-11-06T07:25:17.652Z,9.40
2018-11-06T07:27:46.881Z,9.40
2018-11-06T07:30:18.075Z,9.50
2018-11-06T07:32:46.643Z,9.40
2018-11-06T07:35:16.065Z,9.40
2018-11-06T07:37:45.035Z,9.40
2018-11-06T07:40:14.685Z,9.50
2018-11-06T07:42:43.154Z,9.50
2018-11-06T07:45:16.377Z,9.50
2018-11-06T07:47:44.854Z,9.50
2018-11-06T07:50:14.413Z,9.50
2018-11-06T07:52:42.922Z,9.60
2018-11-06T07:55:12.848Z,9.60
2018-11-06T07:57:41.076Z,9.60
2018-11-06T08:00:13.267Z,9.60
2018-11-06T08:02:42.338Z,9.60
2018-11-06T08:05:11.772Z,9.60
2018-11-06T08:07:39.964Z,9.60
2018-11-06T08:10:09.889Z,9.60
2018-11-06T08:12:38.523Z,9.60
2018-11-06T08:15:08.027Z,9.60
2018-11-06T08:17:37.081Z,9.60
2018-11-06T08:20:06.049Z,9.60
2018-11-06T08:22:34.300Z,9.60
2018-11-06T08:25:02.838Z,9.60
2018-11-06T08:27:31.503Z,9.60
2018-11-06T08:29:59.531Z,9.70
2018-11-06T08:32:28.677Z,9.70
2018-11-06T08:34:56.627Z,9.60
2018-11-06T08:37:26.016Z,9.60
2018-11-06T08:39:54.772Z,9.60
2018-11-06T08:42:23.203Z,9.70
2018-11-06T08:44:52.076Z,9.60
2018-11-06T08:47:21.229Z,9.50
2018-11-06T08:49:49.540Z,9.40
2018-11-06T08:52:18.033Z,9.40
2018-11-06T08:54:46.943Z,9.40
2018-11-06T08:57:15.228Z,9.40
2018-11-06T08:59:43.520Z,9.40
2018-11-06T09:02:11.868Z,9.30
2018-11-06T09:04:41.919Z,9.40
2018-11-06T09:07:10.494Z,9.30
2018-11-06T09:09:38.640Z,9.30
2018-11-06T09:12:07.274Z,9.20
2018-11-06T09:14:35.467Z,9.20
2018-11-06T09:17:03.896Z,9.20
2018-11-06T09:19:32.521Z,9.20
2018-11-06T09:22:01.283Z,9.20
2018-11-06T09:24:29.882Z,9.30
2018-11-06T09:26:59.076Z,9.30
2018-11-06T09:29:27.461Z,9.30
2018-11-06T09:31:55.847Z,9.20
2018-11-06T09:34:24.156Z,9.20
2018-11-06T09:36:52.192Z,9.30
2018-11-06T09:39:20.677Z,9.30
2018-11-06T09:41:49.381Z,9.20
2018-11-06T09:44:17.565Z,9.10
2018-11-06T09:46:45.723Z,9.10
2018-11-06T09:49:13.882Z,9.00
2018-11-06T09:51:42.060Z,9.10
2018-11-06T09:54:10.307Z,9.00
2018-11-06T09:56:38.844Z,8.90
2018-11-06T09:59:07.408Z,8.90
2018-11-06T10:01:35.551Z,8.80
2018-11-06T10:04:04.400Z,8.70
2018-11-06T10:06:32.648Z,8.70
2018-11-06T10:09:00.944Z,8.70
2018-11-06T10:11:29.290Z,8.70
2018-11-06T10:13:57.692Z,8.80
2018-11-06T10:16:26.068Z,8.80
2018-11-06T10:18:55.433Z,8.70
2018-11-06T10:21:23.779Z,8.70
2018-11-06T10:23:51.935Z,8.70
2018-11-06T10:26:20.300Z,8.70
2018-11-06T10:28:48.619Z,8.70
2018-11-06T10:31:16.732Z,8.60
2018-11-06T10:33:45.244Z,8.70
2018-11-06T10:36:13.654Z,8.60
2018-11-06T10:38:42.105Z,8.60
2018-11-06T10:41:13.074Z,8.70
2018-11-06T10:43:41.546Z,8.70
2018-11-06T10:46:10.204Z,8.70
2018-11-06T10:48:38.619Z,8.70
2018-11-06T10:51:07.295Z,8.70
2018-11-06T10:53:36.382Z,8.70
2018-11-06T10:56:05.073Z,8.60
2018-11-06T10:58:33.797Z,8.80
2018-11-06T11:01:07.519Z,8.80
2018-11-06T11:03:42.432Z,8.80
2018-11-06T11:06:11.033Z,8.70
2018-11-06T11:08:39.823Z,8.70
2018-11-06T11:11:08.548Z,8.70
2018-11-06T11:13:37.252Z,8.70
2018-11-06T11:16:06.359Z,8.70
2018-11-06T11:18:34.801Z,8.70
2018-11-06T11:21:04.660Z,8.60
2018-11-06T11:23:33.089Z,8.70
2018-11-06T11:26:01.406Z,8.70
2018-11-06T11:28:30.682Z,8.70
2018-11-06T11:30:59.660Z,8.70
2018-11-06T11:33:28.144Z,8.70
2018-11-06T11:35:56.240Z,8.80
2018-11-06T11:38:24.841Z,8.80
2018-11-06T11:40:53.082Z,8.70
2018-11-06T11:43:21.465Z,8.70
2018-11-06T11:45:49.802Z,8.60
2018-11-06T11:48:18.400Z,8.60
2018-11-06T11:50:46.828Z,8.60
2018-11-06T11:53:15.896Z,8.60
2018-11-06T11:55:45.171Z,8.60
2018-11-06T11:58:13.991Z,8.60
2018-11-06T12:00:42.315Z,8.60
2018-11-06T12:03:10.646Z,8.60
2018-11-06T12:05:39.574Z,8.60
2018-11-06T12:08:08.924Z,8.60
2018-11-06T12:10:37.264Z,8.60
2018-11-06T12:13:05.959Z,8.60
2018-11-06T12:15:34.552Z,8.60
2018-11-06T12:18:03.161Z,8.60
2018-11-06T12:20:32.507Z,8.70
2018-11-06T12:23:01.080Z,8.80
2018-11-06T12:25:30.424Z,8.70
2018-11-06T12:27:58.502Z,8.70
2018-11-06T12:30:26.763Z,8.80
2018-11-06T12:32:55.193Z,8.80
2018-11-06T12:35:24.404Z,8.80
2018-11-06T12:37:52.950Z,8.80
2018-11-06T12:40:22.073Z,8.80
2018-11-06T12:42:51.512Z,8.90
2018-11-06T12:45:19.836Z,8.90
2018-11-06T12:47:48.268Z,8.80
2018-11-06T12:50:16.866Z,8.80
2018-11-06T12:52:45.549Z,8.80
2018-11-06T12:55:15.038Z,8.80
2018-11-06T12:57:43.810Z,8.80
2018-11-06T13:00:15.540Z,8.80
2018-11-06T13:02:44.109Z,8.90
2018-11-06T13:05:13.233Z,8.90
2018-11-06T13:07:42.507Z,8.80
2018-11-06T13:10:11.424Z,8.80
2018-11-06T13:12:40.441Z,8.80
2018-11-06T13:15:08.945Z,8.80
2018-11-06T13:17:37.602Z,8.80
2018-11-06T13:20:07.967Z,8.90
2018-11-06T13:22:37.552Z,8.90
2018-11-06T13:25:06.644Z,8.80
2018-11-06T13:27:35.192Z,8.80
2018-11-06T13:30:03.512Z,8.80
2018-11-06T13:32:32.005Z,8.80
2018-11-06T13:35:00.422Z,8.80
2018-11-06T13:37:29.469Z,8.80
2018-11-06T13:39:57.849Z,8.80
2018-11-06T13:42:26.298Z,8.80
2018-11-06T13:44:54.863Z,8.80
2018-11-06T13:47:23.576Z,8.70
2018-11-06T13:49:51.943Z,8.80
2018-11-06T13:52:20.716Z,8.80
2018-11-06T13:54:49.318Z,8.80
2018-11-06T13:57:17.853Z,8.80
2018-11-06T13:59:46.755Z,8.80
2018-11-06T14:02:15.343Z,8.80
2018-11-06T14:04:43.980Z,8.70
2018-11-06T14:07:12.405Z,8.70
2018-11-06T14:09:41.692Z,8.60
2018-11-06T14:12:10.245Z,8.60
2018-11-06T14:14:38.626Z,8.50
2018-11-06T14:17:07.075Z,8.50
2018-11-06T14:19:35.999Z,8.60
2018-11-06T14:22:05.422Z,8.60
2018-11-06T14:24:34.751Z,8.60
2018-11-06T14:27:04.408Z,8.60
2018-11-06T14:29:34.056Z,8.60
2018-11-06T14:32:02.587Z,8.50
2018-11-06T14:34:31.449Z,8.50
2018-11-06T14:37:00.424Z,8.60
2018-11-06T14:39:28.912Z,8.50
2018-11-06T14:41:57.266Z,8.50
2018-11-06T14:44:25.814Z,8.60
2018-11-06T14:46:54.019Z,8.60
2018-11-06T14:49:22.380Z,8.60
2018-11-06T14:51:50.912Z,8.60
2018-11-06T14:54:19.262Z,8.60
2018-11-06T14:56:53.613Z,8.60
2018-11-06T14:59:22.119Z,8.60
2018-11-06T15:01:50.467Z,8.60
2018-11-06T15:04:18.984Z,8.50
2018-11-06T15:06:47.260Z,8.60
2018-11-06T15:09:18.754Z,8.60
2018-11-06T15:11:47.632Z,8.60
2018-11-06T15:14:15.989Z,8.60
2018-11-06T15:16:44.487Z,8.70
2018-11-06T15:19:12.753Z,8.60
2018-11-06T15:21:40.988Z,8.60
2018-11-06T15:24:09.469Z,8.60
2018-11-06T15:26:37.892Z,8.70
2018-11-06T15:29:06.573Z,8.70
2018-11-06T15:31:35.819Z,8.70
2018-11-06T15:34:04.220Z,8.70
2018-11-06T15:36:34.132Z,8.70
2018-11-06T15:39:02.858Z,8.70
2018-11-06T15:41:31.508Z,8.70
2018-11-06T15:43:59.955Z,8.70
2018-11-06T15:46:28.299Z,8.70
2018-11-06T15:48:57.028Z,8.70
2018-11-06T15:51:25.313Z,8.80
2018-11-06T15:53:54.945Z,8.70
2018-11-06T15:56:24.138Z,8.70
2018-11-06T15:58:53.580Z,8.60
2018-11-06T16:01:21.968Z,8.60
2018-11-06T16:03:50.302Z,8.60
2018-11-06T16:06:18.896Z,8.60
2018-11-06T16:08:47.770Z,8.70
2018-11-06T16:11:17.001Z,8.70
2018-11-06T16:13:45.556Z,8.70
2018-11-06T16:16:14.272Z,8.70
2018-11-06T16:18:42.854Z,8.70
2018-11-06T16:21:12.098Z,8.70
2018-11-06T16:23:40.616Z,8.70
2018-11-06T16:26:09.794Z,8.70
2018-11-06T16:28:38.404Z,8.70
2018-11-06T16:31:06.747Z,8.80
2018-11-06T16:33:35.321Z,8.80
2018-11-06T16:36:03.477Z,8.80
2018-11-06T16:38:32.242Z,8.80
2018-11-06T16:41:00.670Z,8.80
2018-11-06T16:43:29.820Z,8.80
2018-11-06T16:45:58.858Z,8.80
2018-11-06T16:48:27.503Z,8.90
2018-11-06T16:50:57.497Z,8.80
2018-11-06T16:53:27.273Z,8.80
2018-11-06T16:55:56.680Z,8.80
2018-11-06T16:58:25.643Z,8.90
2018-11-06T17:00:54.429Z,8.80
2018-11-06T17:03:22.918Z,8.80
2018-11-06T17:05:51.675Z,8.80
2018-11-06T17:08:20.595Z,8.90
2018-11-06T17:10:49.002Z,8.80
2018-11-06T17:13:17.469Z,8.80
2018-11-06T17:15:45.966Z,8.80
2018-11-06T17:18:14.243Z,8.90
2018-11-06T17:20:42.830Z,8.90
2018-11-06T17:23:12.708Z,9.00
2018-11-06T17:25:42.769Z,9.00
2018-11-06T17:28:11.396Z,8.90
2018-11-06T17:30:40.514Z,9.00
2018-11-06T17:33:08.852Z,9.00
2018-11-06T17:35:37.650Z,9.00
2018-11-06T17:38:06.266Z,8.90
2018-11-06T17:40:34.807Z,9.00
2018-11-06T17:43:03.404Z,9.00
2018-11-06T17:45:31.982Z,9.00
2018-11-06T17:48:00.202Z,9.00
2018-11-06T17:50:28.750Z,9.00
2018-11-06T17:52:56.980Z,9.00
2018-11-06T17:55:25.631Z,9.00
2018-11-06T17:57:53.913Z,9.00
2018-11-06T18:00:23.403Z,8.90
2018-11-06T18:02:51.537Z,8.90
2018-11-06T18:05:21.699Z,8.90
2018-11-06T18:07:49.998Z,9.00
2018-11-06T18:10:19.797Z,8.90
2018-11-06T18:12:48.159Z,8.80
2018-11-06T18:15:16.422Z,8.80
2018-11-06T18:17:44.916Z,8.90
2018-11-06T18:20:14.192Z,9.00
2018-11-06T18:22:44.491Z,9.00
2018-11-06T18:25:13.501Z,9.00
2018-11-06T18:27:41.462Z,9.00
2018-11-06T18:30:12.904Z,9.00
2018-11-06T18:32:41.350Z,9.00
2018-11-06T18:35:10.922Z,9.00
2018-11-06T18:37:39.278Z,9.00
2018-11-06T18:40:10.511Z,9.00
2018-11-06T18:42:39.181Z,9.00
2018-11-06T18:45:08.119Z,9.10
2018-11-06T18:47:36.753Z,9.10
2018-11-06T18:50:06.421Z,9.10
2018-11-06T18:52:35.838Z,9.10
2018-11-06T18:55:04.638Z,9.10
2018-11-06T18:57:32.740Z,9.10
2018-11-06T19:00:00.891Z,9.10
2018-11-06T19:02:29.554Z,9.10
2018-11-06T19:04:57.908Z,9.00
2018-11-06T19:07:26.261Z,9.10
2018-11-06T19:09:54.684Z,9.10
2018-11-06T19:12:23.051Z,9.10
2018-11-06T19:14:51.983Z,9.10
2018-11-06T19:17:20.149Z,9.00
2018-11-06T19:19:48.330Z,9.00
2018-11-06T19:22:16.681Z,9.10
2018-11-06T19:24:45.245Z,9.00
2018-11-06T19:27:13.411Z,9.10
2018-11-06T19:29:41.441Z,9.10
2018-11-06T19:32:09.674Z,9.10
2018-11-06T19:34:37.823Z,9.10
2018-11-06T19:37:06.192Z,9.10
2018-11-06T19:39:36.032Z,9.10
2018-11-06T19:42:04.457Z,9.20
2018-11-06T19:44:32.931Z,9.10
2018-11-06T19:47:01.488Z,9.10
2018-11-06T19:49:29.717Z,9.10
2018-11-06T19:51:57.810Z,9.10
2018-11-06T19:54:26.411Z,9.20
2018-11-06T19:56:54.869Z,9.10
2018-11-06T19:59:23.131Z,9.10
2018-11-06T20:01:51.601Z,9.10
2018-11-06T20:04:20.183Z,9.10
2018-11-06T20:06:48.974Z,9.10
2018-11-06T20:09:17.430Z,9.10
2018-11-06T20:11:46.350Z,9.10
2018-11-06T20:14:14.780Z,9.10
2018-11-06T20:16:43.107Z,9.10
2018-11-06T20:19:11.272Z,9.10
2018-11-06T20:21:39.558Z,9.10
2018-11-06T20:24:07.899Z,9.10
2018-11-06T20:26:36.726Z,9.10
2018-11-06T20:29:06.292Z,9.10
2018-11-06T20:31:35.640Z,9.10
2018-11-06T20:34:04.123Z,9.20
2018-11-06T20:36:32.985Z,9.20
2018-11-06T20:39:01.150Z,9.20
2018-11-06T20:41:31.639Z,9.10
2018-11-06T20:43:59.797Z,9.10
2018-11-06T20:46:28.634Z,9.10
2018-11-06T20:48:56.940Z,9.10
2018-11-06T20:51:25.328Z,9.10
2018-11-06T20:53:53.899Z,9.10
2018-11-06T20:56:22.103Z,9.10
2018-11-06T20:58:50.400Z,9.10
2018-11-06T21:01:18.612Z,9.00
2018-11-06T21:03:47.027Z,9.10
2018-11-06T21:06:15.497Z,9.00
2018-11-06T21:08:45.241Z,9.10
2018-11-06T21:11:14.049Z,9.10
2018-11-06T21:13:42.650Z,9.00
2018-11-06T21:16:10.723Z,9.00
2018-11-06T21:18:38.831Z,9.00
2018-11-06T21:21:07.019Z,8.90
2018-11-06T21:23:35.689Z,8.90
2018-11-06T21:26:04.011Z,8.90
2018-11-06T21:28:31.831Z,8.80
2018-11-06T21:31:00.068Z,8.80
2018-11-06T21:33:28.301Z,8.80
2018-11-06T21:35:56.655Z,8.80
2018-11-06T21:38:24.715Z,8.80
2018-11-06T21:40:52.704Z,8.80
2018-11-06T21:43:20.697Z,8.80
2018-11-06T21:45:48.877Z,8.80
2018-11-06T21:48:16.883Z,8.80
2018-11-06T21:50:45.497Z,8.80
2018-11-06T21:53:13.678Z,8.70
2018-11-06T21:55:41.813Z,8.80
2018-11-06T21:58:10.101Z,8.80
2018-11-06T22:00:38.249Z,8.80
2018-11-06T22:03:06.385Z,8.80
2018-11-06T22:05:34.424Z,8.80
2018-11-06T22:08:02.475Z,8.80
2018-11-06T22:10:30.632Z,8.80
2018-11-06T22:12:58.939Z,8.80
2018-11-06T22:15:26.973Z,8.70
2018-11-06T22:17:55.107Z,8.70
2018-11-06T22:20:23.203Z,8.70
2018-11-06T22:22:51.395Z,8.70
2018-11-06T22:25:19.498Z,8.70
2018-11-06T22:27:47.499Z,8.70
2018-11-06T22:30:16.446Z,8.70
2018-11-06T22:32:45.158Z,8.70
2018-11-06T22:35:14.396Z,8.60
2018-11-06T22:37:42.520Z,8.60
2018-11-06T22:40:11.899Z,8.60
2018-11-06T22:42:40.062Z,8.60
2018-11-06T22:45:10.155Z,8.60
2018-11-06T22:47:38.272Z,8.60
2018-11-06T22:50:09.101Z,8.60
2018-11-06T22:52:37.095Z,8.50
2018-11-06T22:55:05.372Z,8.60
2018-11-06T22:57:33.445Z,8.50
2018-11-06T23:00:01.851Z,8.60
2018-11-06T23:02:30.112Z,8.50
2018-11-06T23:04:58.137Z,8.50
2018-11-06T23:07:31.690Z,8.60
2018-11-06T23:09:59.849Z,8.60
2018-11-06T23:12:28.000Z,8.60
2018-11-06T23:14:55.969Z,8.60
2018-11-06T23:17:24.137Z,8.60
2018-11-06T23:19:52.137Z,8.60
2018-11-06T23:22:20.588Z,8.50
2018-11-06T23:24:48.736Z,8.50
2018-11-06T23:27:16.792Z,8.50
2018-11-06T23:29:44.929Z,8.60
2018-11-06T23:32:12.976Z,8.60
2018-11-06T23:34:41.043Z,8.60
2018-11-06T23:37:09.118Z,8.50
2018-11-06T23:39:37.149Z,8.50
2018-11-06T23:42:05.306Z,8.50
2018-11-06T23:44:33.375Z,8.50
2018-11-06T23:47:01.804Z,8.50
2018-11-06T23:49:30.088Z,8.50
2018-11-06T23:51:58.112Z,8.40
2018-11-06T23:54:26.113Z,8.40
2018-11-06T23:56:54.223Z,8.40
2018-11-06T23:59:22.246Z,8.40
